Time;durP1;ratioP1;P1;durP2;ratioP2;P2;SDS_P1;SDS_P2;PMS_P1;PMS_P2;Temp;Humidity;BMP_temperature;BMP_pressure;BME280_temperature;BME280_humidity;BME280_pressure;Samples;Min_cycle;Max_cycle;Signal;HPM_P1;HPM_P2
2021/12/03 00:01:24;;;;;;;9.05;5.32;;;27.10;90.30;;;;;;5066017;28;20025;-53
2021/12/03 00:03:51;;;;;;;7.07;5.13;;;27.10;90.40;;;;;;5065524;28;20013;-55
2021/12/03 00:06:18;;;;;;;9.43;5.30;;;27.10;90.40;;;;;;5065969;28;20205;-53
2021/12/03 00:08:45;;;;;;;11.55;4.90;;;27.00;90.30;;;;;;5065794;28;20084;-51
2021/12/03 00:11:13;;;;;;;9.68;4.45;;;27.00;90.30;;;;;;5065286;28;20324;-51
2021/12/03 00:13:41;;;;;;;9.18;4.15;;;27.00;90.40;;;;;;5064951;28;20021;-55
2021/12/03 00:16:10;;;;;;;9.52;3.92;;;27.00;90.40;;;;;;5065695;28;20020;-54
2021/12/03 00:18:37;;;;;;;10.55;4.25;;;27.00;90.40;;;;;;5065476;28;20040;-62
2021/12/03 00:21:07;;;;;;;7.10;3.97;;;27.00;90.40;;;;;;5065491;28;20013;-53
2021/12/03 00:23:34;;;;;;;12.98;3.80;;;27.00;90.30;;;;;;5065496;28;20023;-52
2021/12/03 00:26:03;;;;;;;6.28;3.63;;;27.00;90.30;;;;;;5065203;28;20044;-53
2021/12/03 00:28:31;;;;;;;11.13;4.05;;;26.90;90.30;;;;;;5065614;28;20021;-54
2021/12/03 00:30:58;;;;;;;12.32;3.65;;;26.90;90.30;;;;;;5065695;28;20159;-55
2021/12/03 00:33:26;;;;;;;9.95;3.13;;;26.90;90.20;;;;;;5065620;28;20029;-60
2021/12/03 00:35:53;;;;;;;5.82;3.05;;;26.90;90.10;;;;;;5065367;28;20021;-63
2021/12/03 00:38:20;;;;;;;7.07;2.78;;;26.90;90.10;;;;;;5065331;28;20309;-54
2021/12/03 00:40:47;;;;;;;7.85;3.15;;;26.90;90.10;;;;;;5065119;28;20075;-51
2021/12/03 00:43:15;;;;;;;5.15;2.50;;;26.90;90.10;;;;;;5065200;28;20052;-56
2021/12/03 00:45:43;;;;;;;6.00;3.35;;;26.90;90.00;;;;;;5063446;28;20017;-52
2021/12/03 00:48:10;;;;;;;14.32;7.40;;;26.90;90.00;;;;;;5065048;28;20084;-50
2021/12/03 00:50:37;;;;;;;19.50;7.90;;;26.80;89.90;;;;;;5064817;28;20025;-55
2021/12/03 00:53:06;;;;;;;12.68;7.35;;;26.80;90.00;;;;;;5065410;28;20385;-52
2021/12/03 00:55:33;;;;;;;14.82;5.95;;;26.80;90.10;;;;;;5064715;28;20040;-52
2021/12/03 00:58:00;;;;;;;8.68;4.78;;;26.80;90.10;;;;;;5064409;28;20208;-52
2021/12/03 01:00:32;;;;;;;13.18;5.13;;;26.80;90.10;;;;;;5064482;28;20028;-52
2021/12/03 01:03:01;;;;;;;12.25;6.10;;;26.70;90.30;;;;;;5064685;28;20229;-54
2021/12/03 01:05:28;;;;;;;10.55;5.72;;;26.70;90.20;;;;;;5063369;28;20059;-54
2021/12/03 01:07:55;;;;;;;10.13;4.90;;;26.70;90.20;;;;;;5064713;28;20396;-58
2021/12/03 01:10:24;;;;;;;6.32;4.13;;;26.70;90.00;;;;;;5063883;28;20086;-51
2021/12/03 01:12:51;;;;;;;7.38;3.70;;;26.70;90.00;;;;;;5064260;28;20125;-50
2021/12/03 01:15:23;;;;;;;8.95;3.28;;;26.60;90.00;;;;;;5064451;28;20319;-52
2021/12/03 01:17:50;;;;;;;8.15;3.22;;;26.60;90.00;;;;;;5065232;28;20196;-48
2021/12/03 01:20:17;;;;;;;7.63;2.83;;;26.60;89.80;;;;;;5064157;28;20325;-51
2021/12/03 01:22:47;;;;;;;12.63;3.65;;;26.60;89.60;;;;;;5064693;28;20021;-51
2021/12/03 01:25:16;;;;;;;7.30;3.00;;;26.60;89.30;;;;;;5064724;28;20021;-49
2021/12/03 01:27:44;;;;;;;17.40;3.63;;;26.60;89.20;;;;;;5064972;28;20308;-52
2021/12/03 01:30:13;;;;;;;12.38;3.38;;;26.60;88.70;;;;;;5064468;28;20036;-54
2021/12/03 01:32:40;;;;;;;11.68;3.05;;;26.60;88.40;;;;;;5064974;28;20021;-50
2021/12/03 01:35:08;;;;;;;7.15;3.70;;;26.60;88.00;;;;;;5064523;28;20210;-44
2021/12/03 01:37:36;;;;;;;8.10;5.10;;;26.60;87.80;;;;;;5063269;28;20037;-50
2021/12/03 01:40:06;;;;;;;12.70;6.85;;;26.60;87.80;;;;;;5062693;28;20035;-55
2021/12/03 01:42:33;;;;;;;15.38;8.35;;;26.60;87.90;;;;;;5064563;28;20240;-48
2021/12/03 01:44:59;;;;;;;21.67;7.82;;;26.50;88.10;;;;;;5063720;28;20063;-50
2021/12/03 01:47:26;;;;;;;9.35;5.68;;;26.50;88.40;;;;;;5064425;28;20243;-49
2021/12/03 01:49:53;;;;;;;14.80;5.55;;;26.50;88.90;;;;;;5064172;28;20028;-50
2021/12/03 01:52:20;;;;;;;10.18;5.10;;;26.50;89.20;;;;;;5064321;28;20032;-51
2021/12/03 01:54:47;;;;;;;12.18;5.03;;;26.50;89.50;;;;;;5064225;28;20089;-51
2021/12/03 01:57:14;;;;;;;9.20;4.63;;;26.40;89.50;;;;;;5064507;28;20060;-50
2021/12/03 01:59:40;;;;;;;11.77;4.15;;;26.40;89.60;;;;;;5063827;28;20052;-52
2021/12/03 02:02:08;;;;;;;12.45;3.58;;;26.40;89.60;;;;;;5064459;28;20219;-51
2021/12/03 02:04:36;;;;;;;11.90;3.85;;;26.40;89.70;;;;;;5064029;28;20044;-45
2021/12/03 02:07:03;;;;;;;13.10;4.60;;;26.40;89.90;;;;;;5064159;28;20029;-53
2021/12/03 02:09:30;;;;;;;13.60;7.43;;;26.40;89.90;;;;;;5063985;28;20096;-48
2021/12/03 02:11:56;;;;;;;13.95;6.13;;;26.40;90.10;;;;;;5063898;28;20029;-53
2021/12/03 02:14:23;;;;;;;11.00;5.65;;;26.40;90.10;;;;;;5063418;28;20047;-51
2021/12/03 02:16:49;;;;;;;12.90;5.68;;;26.40;90.40;;;;;;5062454;28;20021;-53
2021/12/03 02:19:17;;;;;;;15.85;5.60;;;26.30;90.20;;;;;;5063783;28;20021;-51
2021/12/03 02:21:44;;;;;;;15.02;5.47;;;26.30;90.20;;;;;;5063862;28;20085;-55
2021/12/03 02:24:12;;;;;;;13.35;5.13;;;26.30;90.20;;;;;;5063796;28;20305;-50
2021/12/03 02:26:39;;;;;;;14.65;5.15;;;26.30;90.20;;;;;;5063368;28;20043;-55
2021/12/03 02:29:06;;;;;;;11.38;4.88;;;26.30;90.10;;;;;;5063343;28;20371;-51
2021/12/03 02:31:32;;;;;;;11.55;4.60;;;26.30;90.00;;;;;;5063417;28;20249;-50
2021/12/03 02:33:59;;;;;;;8.55;3.88;;;26.30;89.80;;;;;;5063358;28;20024;-53
2021/12/03 02:36:26;;;;;;;10.18;3.95;;;26.30;89.80;;;;;;5066005;28;20051;-51
2021/12/03 02:38:53;;;;;;;9.75;3.80;;;26.30;89.60;;;;;;5067160;28;20368;-53
2021/12/03 02:41:20;;;;;;;12.30;5.03;;;26.30;89.30;;;;;;5067495;28;20097;-50
2021/12/03 02:43:46;;;;;;;9.10;6.47;;;26.30;89.30;;;;;;5066455;28;20309;-51
2021/12/03 02:46:13;;;;;;;11.85;6.75;;;26.30;89.40;;;;;;5067575;28;20035;-51
2021/12/03 02:48:40;;;;;;;14.70;6.45;;;26.30;89.40;;;;;;5067506;28;20051;-57
2021/12/03 02:51:08;;;;;;;14.20;6.40;;;26.30;89.50;;;;;;5066804;28;20028;-54
2021/12/03 02:53:36;;;;;;;13.65;6.65;;;26.30;89.40;;;;;;5067366;28;20040;-51
2021/12/03 02:56:03;;;;;;;16.30;6.22;;;26.30;89.50;;;;;;5067436;28;20080;-52
2021/12/03 02:58:31;;;;;;;13.40;5.97;;;26.30;89.60;;;;;;5067065;28;20368;-51
2021/12/03 03:00:58;;;;;;;13.45;5.47;;;26.30;89.60;;;;;;5066670;28;20032;-52
2021/12/03 03:03:24;;;;;;;14.77;5.30;;;26.30;89.60;;;;;;5066270;28;20186;-51
2021/12/03 03:05:58;;;;;;;11.30;5.35;;;26.30;89.50;;;;;;5066032;28;20028;-50
2021/12/03 03:08:25;;;;;;;12.38;4.55;;;26.30;89.50;;;;;;5065970;28;20036;-51
2021/12/03 03:10:53;;;;;;;9.00;4.20;;;26.30;89.40;;;;;;5066809;28;20078;-51
2021/12/03 03:13:20;;;;;;;12.10;4.25;;;26.30;89.10;;;;;;5066897;28;20048;-53
2021/12/03 03:15:47;;;;;;;8.15;4.22;;;26.20;89.10;;;;;;5067129;28;20162;-51
2021/12/03 03:18:23;;;;;;;10.40;4.15;;;26.20;88.80;;;;;;5065078;28;20036;-52
2021/12/03 03:20:51;;;;;;;11.05;3.80;;;26.20;88.60;;;;;;5067337;28;20081;-52
2021/12/03 03:23:18;;;;;;;9.07;3.30;;;26.20;88.40;;;;;;5067467;28;20044;-51
2021/12/03 03:25:46;;;;;;;7.65;3.97;;;26.20;88.60;;;;;;5067340;28;20019;-53
2021/12/03 03:28:14;;;;;;;11.02;4.07;;;26.20;88.70;;;;;;5066850;28;20029;-51
2021/12/03 03:30:43;;;;;;;7.07;3.75;;;26.20;88.70;;;;;;5063918;28;20297;-51
2021/12/03 03:33:11;;;;;;;8.65;3.80;;;26.20;88.70;;;;;;5065752;28;20020;-52
2021/12/03 03:35:37;;;;;;;8.05;3.95;;;26.20;88.50;;;;;;5067136;28;20028;-52
2021/12/03 03:38:08;;;;;;;9.93;3.53;;;26.10;88.40;;;;;;5065903;28;20022;-51
2021/12/03 03:40:35;;;;;;;6.03;2.80;;;26.10;88.20;;;;;;5066871;28;20044;-52
2021/12/03 03:43:04;;;;;;;10.73;3.38;;;26.10;87.80;;;;;;5067455;28;20096;-52
2021/12/03 03:45:31;;;;;;;10.95;3.20;;;26.10;87.60;;;;;;5066793;28;20024;-51
2021/12/03 03:47:58;;;;;;;6.72;2.95;;;26.10;87.40;;;;;;5066896;28;20032;-51
2021/12/03 03:50:26;;;;;;;13.68;2.70;;;26.10;87.40;;;;;;5066916;28;20024;-52
2021/12/03 03:52:54;;;;;;;10.70;2.88;;;26.10;87.60;;;;;;5066682;28;20074;-50
2021/12/03 03:55:23;;;;;;;7.93;2.70;;;26.10;87.40;;;;;;5066603;28;20020;-51
2021/12/03 03:57:51;;;;;;;8.90;2.63;;;26.00;87.30;;;;;;5067154;28;20224;-53
2021/12/03 04:00:22;;;;;;;5.65;2.30;;;26.00;87.20;;;;;;5066495;28;20078;-51
2021/12/03 04:02:48;;;;;;;7.38;2.55;;;26.00;87.00;;;;;;5066113;28;20021;-51
2021/12/03 04:05:15;;;;;;;9.57;2.67;;;26.00;86.80;;;;;;5066505;28;20039;-52
2021/12/03 04:07:42;;;;;;;6.97;2.50;;;26.00;86.80;;;;;;5066984;28;20083;-50
2021/12/03 04:10:10;;;;;;;10.65;2.85;;;26.00;86.90;;;;;;5065989;28;20028;-52
2021/12/03 04:12:37;;;;;;;5.20;2.60;;;26.00;87.00;;;;;;5066281;28;20036;-51
2021/12/03 04:15:07;;;;;;;4.65;2.33;;;26.00;87.10;;;;;;5066369;28;20313;-51
2021/12/03 04:17:34;;;;;;;7.88;2.45;;;26.00;87.00;;;;;;5066615;28;20033;-51
2021/12/03 04:20:01;;;;;;;6.63;2.28;;;26.00;86.80;;;;;;5066257;28;20013;-50
2021/12/03 04:22:27;;;;;;;7.00;2.70;;;26.00;86.70;;;;;;5066614;28;20025;-50
2021/12/03 04:24:56;;;;;;;8.05;2.30;;;26.00;86.80;;;;;;5066091;28;20009;-50
2021/12/03 04:27:22;;;;;;;7.95;2.60;;;25.90;86.80;;;;;;5066487;28;20028;-54
2021/12/03 04:29:49;;;;;;;7.65;2.90;;;25.90;86.90;;;;;;5066152;28;20017;-51
2021/12/03 04:32:17;;;;;;;11.95;2.88;;;25.90;87.00;;;;;;5066244;28;20169;-50
2021/12/03 04:34:44;;;;;;;5.53;2.50;;;25.90;87.10;;;;;;5066034;28;20021;-50
2021/12/03 04:37:11;;;;;;;7.53;2.67;;;25.90;87.00;;;;;;5066202;28;20056;-52
2021/12/03 04:39:38;;;;;;;8.60;2.53;;;25.90;86.90;;;;;;5065765;28;20017;-50
2021/12/03 04:42:05;;;;;;;11.77;5.43;;;25.90;87.10;;;;;;5066130;28;20051;-51
2021/12/03 04:44:34;;;;;;;12.70;6.78;;;25.90;87.00;;;;;;5065911;28;20039;-50
2021/12/03 04:47:02;;;;;;;14.23;9.10;;;25.90;86.90;;;;;;5065793;28;20366;-51
2021/12/03 04:49:30;;;;;;;16.58;8.35;;;25.90;87.00;;;;;;5065843;28;20025;-51
2021/12/03 04:51:57;;;;;;;15.82;8.48;;;25.80;86.90;;;;;;5065779;28;20096;-50
2021/12/03 04:54:25;;;;;;;9.20;5.85;;;25.80;87.00;;;;;;5065617;28;20159;-52
2021/12/03 04:56:56;;;;;;;8.00;5.15;;;25.80;87.60;;;;;;5065519;28;20025;-50
2021/12/03 04:59:23;;;;;;;10.77;4.85;;;25.80;87.20;;;;;;5064792;28;20052;-50
2021/12/03 05:01:54;;;;;;;8.93;4.00;;;25.80;87.30;;;;;;5065626;28;20025;-51
2021/12/03 05:04:20;;;;;;;9.63;4.50;;;25.80;87.20;;;;;;5065494;28;20025;-50
2021/12/03 05:09:19;;;;;;;;;;;25.70;87.10;;;;;;5065777;28;20028;-51
2021/12/03 05:11:46;;;;;;;7.63;3.10;;;25.80;87.00;;;;;;5065200;28;19942;-51
2021/12/03 05:14:13;;;;;;;9.63;2.90;;;25.70;86.80;;;;;;5064958;28;20024;-50
2021/12/03 05:16:40;;;;;;;9.30;2.75;;;25.70;86.60;;;;;;5064942;28;20028;-55
2021/12/03 05:19:06;;;;;;;11.23;2.78;;;25.70;86.50;;;;;;5064912;28;20084;-51
2021/12/03 05:21:33;;;;;;;8.18;2.85;;;25.70;86.50;;;;;;5063122;28;20025;-55
2021/12/03 05:23:59;;;;;;;7.22;2.67;;;25.70;86.20;;;;;;5064717;28;20028;-51
2021/12/03 05:26:26;;;;;;;5.53;2.38;;;25.70;86.30;;;;;;5064697;28;20220;-51
2021/12/03 05:28:54;;;;;;;8.65;2.50;;;25.60;85.90;;;;;;5064532;28;20056;-50
2021/12/03 05:31:20;;;;;;;10.05;2.75;;;25.60;86.00;;;;;;5064590;28;20032;-50
2021/12/03 05:33:47;;;;;;;7.97;2.58;;;25.60;86.20;;;;;;5064448;28;20084;-50
2021/12/03 05:36:13;;;;;;;8.15;2.30;;;25.60;86.40;;;;;;5063978;28;20036;-52
2021/12/03 05:38:40;;;;;;;7.75;2.63;;;25.60;86.50;;;;;;5064214;28;20028;-53
2021/12/03 05:41:07;;;;;;;7.63;2.20;;;25.60;86.50;;;;;;5064405;28;20253;-51
2021/12/03 05:43:33;;;;;;;8.30;2.45;;;25.60;86.50;;;;;;5064292;28;20102;-53
2021/12/03 05:46:00;;;;;;;9.13;2.55;;;25.60;86.50;;;;;;5064115;28;20017;-50
2021/12/03 05:48:26;;;;;;;6.72;2.20;;;25.50;86.60;;;;;;5064149;28;20020;-51
2021/12/03 05:50:53;;;;;;;7.93;2.10;;;25.50;86.60;;;;;;5064114;28;20040;-52
2021/12/03 05:53:19;;;;;;;5.13;2.42;;;25.50;86.30;;;;;;5064024;28;20135;-52
2021/12/03 05:55:46;;;;;;;6.15;1.95;;;25.50;86.20;;;;;;5064123;28;20044;-51
2021/12/03 05:58:15;;;;;;;6.13;2.20;;;25.50;86.20;;;;;;5062745;28;20071;-51
2021/12/03 06:00:42;;;;;;;10.23;2.03;;;25.50;86.40;;;;;;5063852;28;20017;-51
2021/12/03 06:03:09;;;;;;;7.70;2.00;;;25.50;86.60;;;;;;5064541;28;20025;-50
2021/12/03 06:05:39;;;;;;;5.75;1.90;;;25.50;86.80;;;;;;5063991;28;20021;-52
2021/12/03 06:08:06;;;;;;;6.18;2.28;;;25.50;87.00;;;;;;5064250;28;20067;-55
2021/12/03 06:10:33;;;;;;;5.72;2.00;;;25.50;87.10;;;;;;5063034;28;20311;-53
2021/12/03 06:13:00;;;;;;;7.70;2.13;;;25.50;87.20;;;;;;5064364;28;20028;-51
2021/12/03 06:15:27;;;;;;;8.15;2.60;;;25.50;87.30;;;;;;5063768;28;20020;-56
2021/12/03 06:17:54;;;;;;;7.43;2.08;;;25.50;87.30;;;;;;5064178;28;20055;-56
2021/12/03 06:20:21;;;;;;;9.20;2.22;;;25.50;87.30;;;;;;5063680;28;20028;-53
2021/12/03 06:22:49;;;;;;;5.53;1.83;;;25.50;87.20;;;;;;5064060;28;20205;-52
2021/12/03 06:25:16;;;;;;;8.77;2.00;;;25.50;87.00;;;;;;5063719;28;20048;-51
2021/12/03 06:27:42;;;;;;;7.03;2.30;;;25.50;86.80;;;;;;5064155;28;20029;-51
2021/12/03 06:30:15;;;;;;;6.20;2.10;;;25.50;86.60;;;;;;5063591;28;20311;-53
2021/12/03 06:32:42;;;;;;;5.07;1.70;;;25.50;86.30;;;;;;5064167;28;20033;-52
2021/12/03 06:35:11;;;;;;;6.10;1.83;;;25.40;86.10;;;;;;5063741;28;20039;-52
2021/12/03 06:37:38;;;;;;;5.85;1.70;;;25.40;85.70;;;;;;5063889;28;20029;-54
2021/12/03 06:40:09;;;;;;;6.80;2.03;;;25.50;85.50;;;;;;5063650;28;20024;-51
2021/12/03 06:42:36;;;;;;;5.45;1.85;;;25.40;85.40;;;;;;5063409;28;20092;-56
2021/12/03 06:45:06;;;;;;;5.07;1.60;;;25.40;85.40;;;;;;5063895;28;20036;-51
2021/12/03 06:47:33;;;;;;;5.15;1.50;;;25.40;85.70;;;;;;5063766;28;20297;-51
2021/12/03 06:50:02;;;;;;;9.68;1.90;;;25.40;85.70;;;;;;5063354;28;20051;-53
2021/12/03 06:52:30;;;;;;;5.88;1.90;;;25.40;85.70;;;;;;5063796;28;20309;-51
2021/12/03 06:55:00;;;;;;;4.93;1.70;;;25.40;85.80;;;;;;5063444;28;20088;-55
2021/12/03 06:57:26;;;;;;;6.80;1.73;;;25.40;85.80;;;;;;5063563;28;20032;-56
2021/12/03 06:59:53;;;;;;;6.65;2.05;;;25.40;85.70;;;;;;5063214;28;20049;-51
2021/12/03 07:02:19;;;;;;;5.40;1.67;;;25.30;85.60;;;;;;5063925;28;20029;-51
2021/12/03 07:04:46;;;;;;;5.43;1.60;;;25.30;85.90;;;;;;5063229;28;20017;-50
2021/12/03 07:07:12;;;;;;;6.40;1.88;;;25.30;85.80;;;;;;5063624;28;20031;-52
2021/12/03 07:09:39;;;;;;;6.70;1.58;;;25.30;85.80;;;;;;5063454;28;20025;-53
2021/12/03 07:12:07;;;;;;;6.35;1.50;;;25.30;85.60;;;;;;5063452;28;20029;-53
2021/12/03 07:14:33;;;;;;;6.72;1.67;;;25.30;85.70;;;;;;5063584;28;20024;-52
2021/12/03 07:17:05;;;;;;;7.80;1.70;;;25.30;85.80;;;;;;5063373;28;20217;-54
2021/12/03 07:19:31;;;;;;;4.88;1.55;;;25.30;85.70;;;;;;5063070;28;20067;-51
2021/12/03 07:21:58;;;;;;;4.32;1.30;;;25.30;85.60;;;;;;5065177;28;20020;-50
2021/12/03 07:24:25;;;;;;;6.97;1.75;;;25.30;85.50;;;;;;5067106;28;20024;-55
2021/12/03 07:26:52;;;;;;;5.43;1.60;;;25.30;85.30;;;;;;5066793;28;20262;-52
2021/12/03 07:29:19;;;;;;;5.35;1.75;;;25.20;85.10;;;;;;5066864;28;20040;-51
2021/12/03 07:31:45;;;;;;;6.85;1.67;;;25.20;84.90;;;;;;5066911;28;20205;-56
2021/12/03 07:34:14;;;;;;;4.90;1.63;;;25.30;84.70;;;;;;5066682;28;20219;-55
2021/12/03 07:36:41;;;;;;;7.00;1.40;;;25.30;84.40;;;;;;5066705;28;20258;-52
2021/12/03 07:39:07;;;;;;;5.63;1.60;;;25.30;84.40;;;;;;5066887;28;20032;-52
2021/12/03 07:41:36;;;;;;;5.13;1.48;;;25.30;84.00;;;;;;5066493;28;20025;-52
2021/12/03 07:44:04;;;;;;;5.20;1.55;;;25.30;84.00;;;;;;5066500;28;20017;-51
2021/12/03 07:46:30;;;;;;;8.88;1.88;;;25.30;83.70;;;;;;5066706;28;20025;-51
2021/12/03 07:48:57;;;;;;;4.25;1.70;;;25.30;83.70;;;;;;5066280;28;20028;-58
2021/12/03 07:51:23;;;;;;;6.28;1.52;;;25.30;83.90;;;;;;5066523;28;20075;-52
2021/12/03 07:53:50;;;;;;;3.83;1.48;;;25.30;83.80;;;;;;5066310;28;20017;-51
2021/12/03 07:56:16;;;;;;;5.53;1.48;;;25.30;84.00;;;;;;5066232;28;20051;-54
2021/12/03 07:58:43;;;;;;;8.43;1.67;;;25.20;83.90;;;;;;5065982;28;20056;-52
2021/12/03 08:01:10;;;;;;;5.25;1.83;;;25.20;83.90;;;;;;5066227;28;20244;-51
2021/12/03 08:03:36;;;;;;;5.32;1.40;;;25.30;83.90;;;;;;5066203;28;20021;-52
2021/12/03 08:06:09;;;;;;;5.68;1.23;;;25.20;83.50;;;;;;5066032;28;20049;-50
2021/12/03 08:08:38;;;;;;;7.82;1.42;;;25.20;83.50;;;;;;5066358;28;20023;-52
2021/12/03 08:11:05;;;;;;;6.05;1.50;;;25.20;83.40;;;;;;5065874;28;20305;-53
2021/12/03 08:13:33;;;;;;;6.63;1.27;;;25.20;83.50;;;;;;5066263;28;20020;-58
2021/12/03 08:16:00;;;;;;;4.20;1.27;;;25.20;83.50;;;;;;5066069;28;20028;-60
2021/12/03 08:18:27;;;;;;;5.95;1.80;;;25.20;83.40;;;;;;5065634;28;20190;-56
2021/12/03 08:20:54;;;;;;;4.70;1.58;;;25.20;83.40;;;;;;5065788;28;20035;-52
2021/12/03 08:23:20;;;;;;;5.05;1.38;;;25.20;83.40;;;;;;5066081;28;20017;-52
2021/12/03 08:25:47;;;;;;;5.50;1.42;;;25.20;83.40;;;;;;5065616;28;20076;-52
2021/12/03 08:28:14;;;;;;;5.00;1.38;;;25.20;83.40;;;;;;5066245;28;20028;-55
2021/12/03 08:30:40;;;;;;;6.30;1.58;;;25.20;83.40;;;;;;5065610;28;20096;-51
2021/12/03 08:33:07;;;;;;;4.07;1.52;;;25.20;83.40;;;;;;5065014;28;20032;-52
2021/12/03 08:35:34;;;;;;;7.15;1.90;;;25.20;83.50;;;;;;5065760;28;20035;-51
2021/12/03 08:38:01;;;;;;;5.32;1.70;;;25.10;83.50;;;;;;5065975;28;20028;-51
2021/12/03 08:40:28;;;;;;;4.80;1.52;;;25.10;83.60;;;;;;5065369;28;20020;-54
2021/12/03 08:42:54;;;;;;;5.93;1.67;;;25.10;83.50;;;;;;5065812;28;20033;-51
2021/12/03 08:45:21;;;;;;;7.15;2.13;;;25.10;83.60;;;;;;5065429;28;20021;-52
2021/12/03 08:47:52;;;;;;;6.90;1.88;;;25.10;83.60;;;;;;5065623;28;20036;-50
2021/12/03 08:50:28;;;;;;;7.30;1.65;;;25.10;83.50;;;;;;5065486;28;20036;-52
2021/12/03 08:53:19;;;;;;;5.78;1.60;;;25.10;83.60;;;;;;5065637;28;20028;-51
2021/12/03 08:55:46;;;;;;;3.85;1.40;;;25.10;83.50;;;;;;5065175;28;20055;-51
2021/12/03 08:58:14;;;;;;;5.63;1.60;;;25.10;83.50;;;;;;5065139;28;20212;-51
2021/12/03 09:00:41;;;;;;;5.93;1.58;;;25.10;83.40;;;;;;5064888;28;20037;-54
2021/12/03 09:03:08;;;;;;;3.65;1.40;;;25.10;83.40;;;;;;5064996;28;20190;-52
2021/12/03 09:05:37;;;;;;;4.05;1.20;;;25.10;83.30;;;;;;5065341;28;20232;-53
2021/12/03 09:08:04;;;;;;;4.80;1.60;;;25.10;83.40;;;;;;5065254;28;20036;-50
2021/12/03 09:10:31;;;;;;;5.07;1.75;;;25.10;83.50;;;;;;5064988;28;20320;-51
2021/12/03 09:12:57;;;;;;;6.80;1.80;;;25.10;83.50;;;;;;5065275;28;20033;-52
2021/12/03 09:15:51;;;;;;;4.47;1.45;;;25.10;83.60;;;;;;5064720;28;20028;-52
2021/12/03 09:23:28;;;;;;;;;;;25.00;83.80;;;;;;5065617;28;20027;-52
2021/12/03 09:26:04;;;;;;;8.00;1.20;;;25.00;83.80;;;;;;5064395;28;19900;-53
2021/12/03 09:28:32;;;;;;;4.20;1.40;;;25.00;83.90;;;;;;5064457;28;20028;-51
2021/12/03 09:30:59;;;;;;;6.70;1.60;;;24.90;84.00;;;;;;5064579;28;20009;-51
2021/12/03 09:33:28;;;;;;;6.00;1.85;;;25.00;84.40;;;;;;5064457;28;20025;-55
2021/12/03 09:36:00;;;;;;;7.40;1.50;;;25.00;84.50;;;;;;5064344;28;20013;-54
2021/12/03 09:38:31;;;;;;;3.65;1.17;;;24.90;84.50;;;;;;5064480;28;20067;-53
2021/12/03 09:41:11;;;;;;;6.43;1.80;;;24.90;84.70;;;;;;5064251;28;20217;-50
2021/12/03 09:43:41;;;;;;;7.20;1.60;;;24.90;84.80;;;;;;5064292;28;20009;-55
2021/12/03 09:46:15;;;;;;;5.68;1.42;;;24.90;85.50;;;;;;5064083;28;20070;-51
2021/12/03 09:51:09;;;;;;;6.00;1.85;;;24.90;85.30;;;;;;5064077;28;20029;-51
2021/12/03 09:54:00;;;;;;;4.47;1.73;;;24.80;85.40;;;;;;5064130;28;20084;-52
2021/12/03 09:56:24;;;;;;;6.68;1.92;;;24.80;85.30;;;;;;5063804;28;20033;-51
2021/12/03 10:15:36;;;;;;;10.63;2.33;;;24.80;85.70;;;;;;5063751;28;20024;-55
2021/12/03 10:20:53;;;;;;;4.20;1.80;;;24.80;85.60;;;;;;5063621;28;20071;-52
2021/12/03 10:34:26;;;;;;;5.85;2.05;;;24.80;85.40;;;;;;5063770;28;20024;-51
2021/12/03 10:50:11;;;;;;;5.97;1.90;;;24.70;85.10;;;;;;5063364;28;20024;-52
2021/12/03 12:10:18;;;;;;;9.85;2.30;;;25.20;85.20;;;;;;5045860;28;20084;-55
2021/12/03 13:19:58;;;;;;;8.38;2.67;;;25.90;86.60;;;;;;5064139;28;20076;-62
2021/12/03 14:41:08;;;;;;;5.22;1.70;;;26.60;86.80;;;;;;5067742;28;20348;-56
2021/12/03 14:43:47;;;;;;;8.32;2.72;;;26.50;86.40;;;;;;5066753;28;20295;-56
2021/12/03 14:51:46;;;;;;;7.80;2.17;;;26.60;86.10;;;;;;5067213;28;20020;-53
2021/12/03 15:00:31;;;;;;;7.65;2.25;;;26.70;85.00;;;;;;5066030;28;20033;-53
2021/12/03 15:35:42;;;;;;;13.25;2.92;;;27.00;82.00;;;;;;5066747;28;20087;-50
2021/12/03 15:57:12;;;;;;;50.03;10.77;;;27.10;79.10;;;;;;5066823;28;20017;-53
2021/12/03 16:10:30;;;;;;;14.55;5.63;;;27.30;75.90;;;;;;5066271;28;20062;-52
2021/12/03 16:15:53;;;;;;;16.83;5.25;;;27.30;76.90;;;;;;5060920;28;20084;-55
2021/12/03 16:18:44;;;;;;;13.13;4.88;;;27.40;76.90;;;;;;5064390;28;20037;-53
2021/12/03 16:23:57;;;;;;;11.45;3.88;;;27.40;76.10;;;;;;5045967;28;20016;-54
2021/12/03 16:45:45;;;;;;;10.07;3.33;;;27.60;74.90;;;;;;5062316;28;20296;-54
2021/12/03 16:53:30;;;;;;;9.57;2.92;;;27.70;75.10;;;;;;5065005;28;20360;-53
2021/12/03 16:58:32;;;;;;;7.15;3.22;;;27.80;75.00;;;;;;5064694;28;20017;-54
2021/12/03 17:01:07;;;;;;;9.75;3.45;;;27.80;74.60;;;;;;5064736;28;20027;-52
2021/12/03 17:30:12;;;;;;;19.88;3.55;;;28.00;74.30;;;;;;5064550;28;20058;-55
2021/12/03 17:47:00;;;;;;;9.02;2.97;;;28.20;74.20;;;;;;5064240;28;20063;-56
2021/12/03 17:49:33;;;;;;;15.10;3.42;;;28.20;74.00;;;;;;5062803;28;20187;-53
2021/12/03 17:59:51;;;;;;;7.90;2.90;;;28.30;74.50;;;;;;5063889;28;20135;-52
2021/12/03 18:07:39;;;;;;;9.57;3.45;;;28.40;74.80;;;;;;5064245;28;20020;-52
2021/12/03 18:53:00;;;;;;;11.02;4.18;;;28.70;74.80;;;;;;5063853;28;20014;-54
2021/12/03 18:57:58;;;;;;;8.43;3.50;;;28.70;74.80;;;;;;5063311;28;20033;-53
2021/12/03 19:00:29;;;;;;;12.30;4.10;;;28.70;75.40;;;;;;5063026;28;20104;-59
2021/12/03 19:02:58;;;;;;;10.68;3.38;;;28.70;74.70;;;;;;5063711;28;20412;-55
2021/12/03 19:06:28;;;;;;;10.57;3.35;;;28.80;74.50;;;;;;5063291;28;20021;-53
2021/12/03 19:08:38;;;;;;;11.75;3.47;;;28.80;74.60;;;;;;5049692;28;20029;-51
2021/12/03 19:11:08;;;;;;;16.48;3.90;;;28.80;74.20;;;;;;5057816;28;20285;-55
2021/12/03 19:13:39;;;;;;;9.82;3.63;;;28.90;73.70;;;;;;5063212;28;20059;-58
2021/12/03 19:16:10;;;;;;;11.95;3.70;;;28.90;73.90;;;;;;5062175;28;20059;-55
2021/12/03 19:18:38;;;;;;;12.30;3.63;;;28.90;73.70;;;;;;5065634;28;20016;-51
2021/12/03 19:21:11;;;;;;;13.73;4.88;;;28.90;73.90;;;;;;5066308;28;20041;-53
2021/12/03 19:23:38;;;;;;;12.68;4.18;;;28.90;73.60;;;;;;5066690;28;20028;-55
2021/12/03 19:26:05;;;;;;;12.88;4.10;;;28.90;73.70;;;;;;5066792;28;20044;-55
2021/12/03 19:28:32;;;;;;;12.27;3.70;;;29.00;74.10;;;;;;5066867;28;20325;-60
2021/12/03 19:30:59;;;;;;;9.32;3.88;;;29.00;74.10;;;;;;5066528;28;20025;-55
2021/12/03 19:33:26;;;;;;;9.15;3.90;;;29.00;74.00;;;;;;5066789;28;20028;-56
2021/12/03 19:35:53;;;;;;;9.20;4.00;;;29.00;74.50;;;;;;5066489;28;20017;-55
2021/12/03 19:38:19;;;;;;;9.23;3.90;;;29.00;73.80;;;;;;5066695;28;20324;-55
2021/12/03 19:40:59;;;;;;;11.73;3.97;;;29.00;73.90;;;;;;5066452;28;20021;-53
2021/12/03 19:43:35;;;;;;;9.82;3.97;;;29.00;74.00;;;;;;5066589;28;20056;-53
2021/12/03 19:46:04;;;;;;;11.30;3.83;;;29.00;74.40;;;;;;5066669;28;20391;-53
2021/12/03 19:48:36;;;;;;;8.75;3.47;;;29.00;74.30;;;;;;5066317;28;20078;-53
2021/12/03 19:51:12;;;;;;;9.75;3.80;;;29.10;74.40;;;;;;5066249;28;20221;-51
2021/12/03 19:53:44;;;;;;;13.52;3.28;;;29.00;74.30;;;;;;5066303;28;20075;-55
2021/12/03 19:56:11;;;;;;;11.25;3.65;;;29.10;74.60;;;;;;5066294;28;20036;-54
2021/12/03 19:58:38;;;;;;;7.95;3.70;;;29.10;74.50;;;;;;5066131;28;20045;-51
2021/12/03 20:01:05;;;;;;;11.55;3.88;;;29.10;74.40;;;;;;5066155;28;20016;-51
2021/12/03 20:03:31;;;;;;;10.18;4.03;;;29.10;74.20;;;;;;5066139;28;20021;-52
2021/12/03 20:05:58;;;;;;;9.88;3.35;;;29.10;74.30;;;;;;5065963;28;20021;-56
2021/12/03 20:08:25;;;;;;;14.10;3.95;;;29.10;74.30;;;;;;5066111;28;20083;-54
2021/12/03 20:10:54;;;;;;;11.45;4.20;;;29.10;74.50;;;;;;5065972;28;20025;-59
2021/12/03 20:13:24;;;;;;;6.88;3.22;;;29.10;74.50;;;;;;5065941;28;20031;-53
2021/12/03 20:21:18;;;;;;;11.90;3.60;;;29.20;74.40;;;;;;5043274;28;20332;-52
2021/12/03 20:24:02;;;;;;;10.65;3.50;;;29.20;74.30;;;;;;5065655;28;20020;-51
2021/12/03 20:29:14;;;;;;;8.18;2.80;;;29.20;74.50;;;;;;5064698;28;20009;-53
2021/12/03 20:31:46;;;;;;;10.40;3.60;;;29.20;74.30;;;;;;5065855;28;20031;-52
2021/12/03 20:37:09;;;;;;;7.90;3.83;;;29.20;74.50;;;;;;5065790;28;20027;-55
2021/12/03 20:39:40;;;;;;;12.70;4.10;;;29.20;74.60;;;;;;5065342;28;20031;-57
2021/12/03 20:42:20;;;;;;;12.63;4.80;;;29.20;74.70;;;;;;5065693;28;20025;-52
2021/12/03 20:45:08;;;;;;;9.77;4.10;;;29.20;74.70;;;;;;5065287;28;20370;-52
2021/12/03 20:50:41;;;;;;;10.57;4.28;;;29.30;75.00;;;;;;5065326;28;20054;-52
2021/12/03 21:09:13;;;;;;;14.98;5.45;;;29.30;74.70;;;;;;5065050;28;20028;-52
2021/12/03 21:11:45;;;;;;;13.98;5.78;;;29.30;75.00;;;;;;5065017;28;20025;-54
2021/12/03 21:14:19;;;;;;;11.90;5.53;;;29.30;74.90;;;;;;5064745;28;20207;-52
2021/12/03 21:17:03;;;;;;;12.55;5.70;;;29.30;75.00;;;;;;5064934;28;20303;-56
2021/12/03 21:22:10;;;;;;;14.90;5.32;;;29.30;75.10;;;;;;5064935;28;20017;-52
2021/12/03 21:24:39;;;;;;;12.70;5.50;;;29.30;75.10;;;;;;5064548;28;20412;-56
2021/12/03 21:27:12;;;;;;;10.43;4.68;;;29.30;75.40;;;;;;5064572;28;20067;-52